Time;durP1;ratioP1;P1;durP2;ratioP2;P2;SDS_P1;SDS_P2;PMS_P1;PMS_P2;Temp;Humidity;BMP_temperature;BMP_pressure;BME280_temperature;BME280_humidity;BME280_pressure;Samples;Min_cycle;Max_cycle;Signal;HPM_P1;HPM_P2
2022/10/22 00:01:39;;;;;;;2.03;1.33;;;;;;;21.91;100.00;96042.09;4966956;28;20635;-50
2022/10/22 00:04:07;;;;;;;3.13;1.40;;;;;;;22.48;100.00;96038.03;4967735;28;20063;-48
2022/10/22 00:06:35;;;;;;;5.55;1.77;;;;;;;22.61;100.00;96042.41;4966683;28;20633;-47
2022/10/22 00:09:04;;;;;;;3.67;1.50;;;;;;;22.95;100.00;96040.84;4967095;28;20089;-44
2022/10/22 00:11:32;;;;;;;2.20;1.30;;;;;;;22.95;100.00;96034.63;4964154;28;20075;-47
2022/10/22 00:14:01;;;;;;;7.75;1.65;;;;;;;23.17;100.00;96032.19;4967307;28;20070;-52
2022/10/22 00:16:30;;;;;;;2.88;1.35;;;;;;;23.20;100.00;96027.16;4962340;28;20087;-44
2022/10/22 00:18:59;;;;;;;5.57;1.40;;;;;;;23.32;100.00;96019.06;4966587;28;20090;-44
2022/10/22 00:21:28;;;;;;;3.95;1.30;;;;;;;23.11;100.00;96031.25;4964519;28;20066;-43
2022/10/22 00:23:56;;;;;;;4.20;1.55;;;;;;;23.27;100.00;96043.19;4967520;28;20082;-42
2022/10/22 00:26:24;;;;;;;4.30;1.50;;;;;;;22.65;100.00;96048.13;4966565;28;20078;-44
2022/10/22 00:28:53;;;;;;;3.38;1.52;;;;;;;22.06;100.00;96042.53;4967177;28;20446;-48
2022/10/22 00:31:21;;;;;;;3.50;1.50;;;;;;;21.72;100.00;96050.19;4967255;28;20090;-44
2022/10/22 00:33:51;;;;;;;1.70;1.00;;;;;;;21.60;100.00;96040.41;4963563;28;20079;-46
2022/10/22 00:36:19;;;;;;;4.07;1.40;;;;;;;22.00;100.00;96022.78;4964854;28;20089;-51
2022/10/22 00:38:47;;;;;;;6.65;1.50;;;;;;;22.07;100.00;96019.19;4967185;28;20079;-43
2022/10/22 00:41:16;;;;;;;2.92;1.30;;;;;;;21.60;100.00;96033.19;4967396;28;20062;-43
2022/10/22 00:43:55;;;;;;;2.92;1.08;;;;;;;21.16;100.00;96044.97;4965729;28;20647;-47
2022/10/22 00:46:24;;;;;;;1.73;0.95;;;;;;;21.06;100.00;96054.34;4966461;28;20086;-47
2022/10/22 00:48:55;;;;;;;3.78;1.33;;;;;;;20.97;100.00;96058.34;4967881;28;20067;-46
2022/10/22 00:51:25;;;;;;;2.70;1.10;;;;;;;20.95;100.00;96071.13;4965410;28;20082;-42
2022/10/22 00:53:56;;;;;;;2.03;1.13;;;;;;;20.81;100.00;96064.25;4960709;28;20078;-42
2022/10/22 00:56:25;;;;;;;6.85;1.40;;;;;;;20.80;100.00;96084.06;4966038;28;20533;-43
2022/10/22 00:58:57;;;;;;;4.55;1.10;;;;;;;20.29;100.00;96096.50;4965927;28;20081;-45
2022/10/22 01:01:28;;;;;;;5.07;1.55;;;;;;;20.55;100.00;96113.50;4969505;28;20086;-44
2022/10/22 01:03:57;;;;;;;7.00;1.30;;;;;;;20.09;100.00;96115.34;4968709;28;20071;-44
2022/10/22 01:06:27;;;;;;;3.33;0.90;;;;;;;19.85;100.00;96119.56;4971827;28;20496;-45
2022/10/22 01:09:09;;;;;;;3.75;1.23;;;;;;;19.99;100.00;96112.28;4970973;28;20085;-43
2022/10/22 01:11:47;;;;;;;2.60;1.05;;;;;;;19.86;100.00;96099.81;4967698;28;20466;-49
2022/10/22 01:14:20;;;;;;;5.80;1.38;;;;;;;19.91;100.00;96089.28;4965508;28;20093;-47
2022/10/22 01:16:54;;;;;;;3.60;1.30;;;;;;;19.66;100.00;96088.34;4971310;28;20078;-51
2022/10/22 01:19:36;;;;;;;3.28;1.30;;;;;;;19.98;100.00;96088.44;4969801;28;20074;-47
2022/10/22 01:22:09;;;;;;;4.22;0.90;;;;;;;19.94;100.00;96081.88;4969838;28;20454;-44
2022/10/22 01:24:45;;;;;;;3.13;1.10;;;;;;;20.17;100.00;96079.50;4966467;28;20168;-43
2022/10/22 01:27:22;;;;;;;1.95;0.95;;;;;;;20.32;100.00;96069.31;4970326;28;20070;-43
2022/10/22 01:29:52;;;;;;;2.38;1.10;;;;;;;20.11;100.00;96064.28;4970378;28;20086;-42
2022/10/22 01:32:23;;;;;;;5.45;1.50;;;;;;;20.21;100.00;96061.97;4966916;28;20085;-44
2022/10/22 01:34:55;;;;;;;2.50;1.42;;;;;;;20.32;100.00;96058.59;4962607;28;20089;-46
2022/10/22 01:37:26;;;;;;;2.50;1.30;;;;;;;20.34;100.00;96058.41;4971002;28;20078;-48
2022/10/22 01:39:56;;;;;;;3.25;1.30;;;;;;;20.66;100.00;96063.78;4969629;28;20514;-47
2022/10/22 01:42:24;;;;;;;4.70;1.30;;;;;;;20.49;100.00;96058.09;4970944;28;20082;-45
2022/10/22 01:44:54;;;;;;;2.55;1.10;;;;;;;20.02;100.00;96065.56;4970447;28;20451;-42
2022/10/22 01:47:30;;;;;;;2.05;1.00;;;;;;;20.42;100.00;96078.75;4968742;28;20128;-46
2022/10/22 01:50:17;;;;;;;3.50;1.30;;;;;;;20.51;100.00;96074.78;4968576;28;20086;-42
2022/10/22 01:52:57;;;;;;;4.22;1.48;;;;;;;20.53;100.00;96076.22;4965931;28;20090;-48
2022/10/22 01:55:29;;;;;;;3.25;1.20;;;;;;;20.05;100.00;96092.72;4969654;28;20078;-43
2022/10/22 01:58:06;;;;;;;5.22;1.27;;;;;;;20.30;100.00;96084.78;4969019;28;20082;-43
2022/10/22 02:00:40;;;;;;;4.15;1.10;;;;;;;20.43;100.00;96093.75;4966848;28;20513;-45
2022/10/22 02:03:12;;;;;;;5.07;1.20;;;;;;;20.15;100.00;96095.75;4970172;28;20089;-48
2022/10/22 02:05:44;;;;;;;4.28;1.30;;;;;;;20.28;100.00;96088.69;4967517;28;20090;-43
2022/10/22 02:08:16;;;;;;;3.25;0.95;;;;;;;20.20;100.00;96087.09;4968139;28;20086;-43
2022/10/22 02:10:46;;;;;;;3.53;1.15;;;;;;;20.71;100.00;96078.13;4962248;28;20083;-47
2022/10/22 02:13:18;;;;;;;2.83;0.95;;;;;;;20.85;100.00;96073.50;4969979;28;20081;-46
2022/10/22 02:15:50;;;;;;;4.95;1.20;;;;;;;20.52;100.00;96082.59;4960615;28;20094;-45
2022/10/22 02:18:20;;;;;;;2.80;1.40;;;;;;;20.61;100.00;96094.72;4969134;28;20082;-45
2022/10/22 02:20:49;;;;;;;4.43;1.50;;;;;;;20.50;100.00;96097.22;4965956;28;20525;-43
2022/10/22 02:23:18;;;;;;;2.93;1.40;;;;;;;20.44;100.00;96112.31;4969613;28;20085;-48
2022/10/22 02:25:49;;;;;;;3.13;1.50;;;;;;;20.63;100.00;96121.28;4967686;28;20094;-44
2022/10/22 02:28:23;;;;;;;4.95;1.40;;;;;;;20.57;100.00;96122.94;4969332;28;20062;-48
2022/10/22 02:30:55;;;;;;;3.78;1.17;;;;;;;20.26;100.00;96125.56;4967957;28;20553;-44
2022/10/22 02:33:27;;;;;;;8.45;1.65;;;;;;;20.50;100.00;96127.53;4969663;28;20082;-45
2022/10/22 02:35:56;;;;;;;2.42;1.30;;;;;;;20.10;100.00;96132.25;4969773;28;20097;-47
2022/10/22 02:38:25;;;;;;;4.93;1.23;;;;;;;19.90;100.00;96140.34;4970371;28;20525;-45
2022/10/22 02:40:53;;;;;;;3.65;1.20;;;;;;;20.51;100.00;96145.28;4969515;28;20525;-48
2022/10/22 02:43:24;;;;;;;6.35;1.20;;;;;;;20.75;100.00;96141.00;4969421;28;20525;-46
2022/10/22 02:45:53;;;;;;;3.05;1.30;;;;;;;20.74;100.00;96141.19;4969186;28;20093;-43
2022/10/22 02:48:22;;;;;;;5.15;1.27;;;;;;;20.95;100.00;96143.53;4963232;28;20078;-43
2022/10/22 02:50:50;;;;;;;2.10;1.10;;;;;;;21.27;100.00;96138.94;4966628;28;20096;-53
2022/10/22 02:53:18;;;;;;;2.13;1.15;;;;;;;21.08;100.00;96154.16;4965298;28;20083;-46
2022/10/22 02:55:46;;;;;;;3.95;1.58;;;;;;;21.22;100.00;96154.88;4970217;28;20087;-45
2022/10/22 02:58:14;;;;;;;3.63;1.50;;;;;;;20.98;100.00;96151.13;4965354;28;20086;-44
2022/10/22 03:00:43;;;;;;;4.28;1.17;;;;;;;20.91;100.00;96152.22;4961588;28;20086;-45
2022/10/22 03:03:12;;;;;;;3.08;1.23;;;;;;;20.76;100.00;96152.53;4969630;28;20566;-44
2022/10/22 03:05:41;;;;;;;2.53;1.60;;;;;;;20.66;100.00;96149.50;4964213;28;20110;-43
2022/10/22 03:08:09;;;;;;;4.35;1.45;;;;;;;21.45;100.00;96148.94;4966682;28;20078;-43
2022/10/22 03:10:37;;;;;;;2.65;1.33;;;;;;;21.13;100.00;96158.88;4964546;28;20075;-43
2022/10/22 03:13:05;;;;;;;3.80;1.20;;;;;;;21.83;100.00;96155.97;4967967;28;20552;-43
2022/10/22 03:15:34;;;;;;;3.03;0.98;;;;;;;21.25;100.00;96146.38;4969047;28;20070;-42
2022/10/22 03:18:02;;;;;;;4.30;1.30;;;;;;;21.50;100.00;96145.56;4967192;28;20575;-46
2022/10/22 03:20:32;;;;;;;2.83;1.00;;;;;;;21.40;100.00;96139.88;4964032;28;20086;-49
2022/10/22 03:23:01;;;;;;;5.13;1.30;;;;;;;21.51;100.00;96134.63;4964315;28;20094;-45
2022/10/22 03:25:29;;;;;;;6.97;1.30;;;;;;;21.16;100.00;96133.47;4966152;28;20164;-42
2022/10/22 03:28:01;;;;;;;3.40;1.13;;;;;;;21.72;100.00;96133.38;4964901;28;20074;-46
2022/10/22 03:30:29;;;;;;;2.30;1.30;;;;;;;20.83;100.00;96139.91;4964869;28;20085;-51
2022/10/22 03:32:58;;;;;;;2.25;1.00;;;;;;;21.20;100.00;96148.09;4965263;28;20090;-48
2022/10/22 03:35:26;;;;;;;3.42;1.08;;;;;;;21.41;100.00;96137.00;4967769;28;20066;-46
2022/10/22 03:37:56;;;;;;;3.80;1.20;;;;;;;21.24;100.00;96134.03;4966162;28;20090;-46
2022/10/22 03:40:24;;;;;;;2.38;1.08;;;;;;;21.32;100.00;96140.97;4962858;28;20082;-45
2022/10/22 03:42:53;;;;;;;1.27;0.90;;;;;;;20.88;100.00;96148.09;4965520;28;20078;-48
2022/10/22 03:45:21;;;;;;;2.17;1.10;;;;;;;21.16;100.00;96146.88;4963618;28;20081;-44
2022/10/22 03:47:50;;;;;;;1.80;0.90;;;;;;;20.98;100.00;96151.13;4963258;28;20101;-45
2022/10/22 03:50:18;;;;;;;1.85;1.00;;;;;;;20.79;100.00;96154.78;4968100;28;20066;-45
2022/10/22 03:52:46;;;;;;;4.25;1.30;;;;;;;20.60;100.00;96159.22;4968963;28;20477;-46
2022/10/22 03:55:16;;;;;;;2.00;1.30;;;;;;;20.24;100.00;96162.47;4966359;28;20469;-46
2022/10/22 03:57:44;;;;;;;3.13;1.10;;;;;;;20.17;100.00;96178.56;4968975;28;20093;-46
2022/10/22 04:00:12;;;;;;;6.13;1.25;;;;;;;20.52;100.00;96188.94;4968375;28;20153;-49
2022/10/22 04:02:41;;;;;;;7.03;1.10;;;;;;;20.25;100.00;96189.03;4965575;28;20541;-44
2022/10/22 04:05:09;;;;;;;3.80;1.33;;;;;;;20.10;100.00;96194.66;4962534;28;20078;-46
2022/10/22 04:07:37;;;;;;;4.00;0.90;;;;;;;20.02;100.00;96191.38;4966506;28;20100;-47
2022/10/22 04:10:07;;;;;;;2.50;1.33;;;;;;;20.28;100.00;96179.75;4965687;28;20511;-48
2022/10/22 04:12:36;;;;;;;4.00;1.40;;;;;;;20.11;100.00;96190.09;4965416;28;20090;-47
2022/10/22 04:15:05;;;;;;;3.00;1.25;;;;;;;20.70;100.00;96185.56;4964243;28;20447;-47
2022/10/22 04:17:34;;;;;;;3.53;0.90;;;;;;;20.54;100.00;96187.72;4966408;28;20082;-47
2022/10/22 04:20:04;;;;;;;1.58;1.00;;;;;;;20.47;100.00;96199.44;4963519;28;20073;-46
2022/10/22 04:22:33;;;;;;;4.13;1.13;;;;;;;20.59;100.00;96203.94;4961169;28;20102;-48
2022/10/22 04:25:02;;;;;;;3.08;1.00;;;;;;;19.93;100.00;96196.13;4965207;28;20078;-43
2022/10/22 04:27:31;;;;;;;2.65;1.20;;;;;;;20.08;100.00;96188.66;4966972;28;20159;-40
2022/10/22 04:30:00;;;;;;;2.25;1.20;;;;;;;21.05;100.00;96185.94;4964104;28;20197;-45
2022/10/22 04:32:29;;;;;;;5.43;1.15;;;;;;;20.77;100.00;96189.00;4965053;28;20072;-42
2022/10/22 04:34:57;;;;;;;2.90;1.35;;;;;;;20.33;100.00;96193.31;4959443;28;20078;-46
2022/10/22 04:37:26;;;;;;;2.08;1.10;;;;;;;20.16;100.00;96187.59;4964521;28;20439;-43
2022/10/22 04:39:54;;;;;;;3.03;0.93;;;;;;;19.77;100.00;96196.56;4964116;28;20104;-51
2022/10/22 04:42:25;;;;;;;2.55;1.13;;;;;;;20.32;100.00;96195.16;4964667;28;20093;-42
2022/10/22 04:44:53;;;;;;;1.40;1.10;;;;;;;20.26;100.00;96193.34;4961353;28;20086;-45
2022/10/22 04:47:23;;;;;;;3.28;1.02;;;;;;;20.44;100.00;96195.34;4964789;28;21080;-47
2022/10/22 04:49:51;;;;;;;3.63;1.20;;;;;;;20.02;100.00;96191.38;4963544;28;20093;-46
2022/10/22 04:52:20;;;;;;;3.08;0.90;;;;;;;20.14;100.00;96190.50;4964525;28;20463;-46
2022/10/22 04:54:48;;;;;;;3.67;0.90;;;;;;;20.35;100.00;96189.41;4965161;28;20079;-47
2022/10/22 04:57:16;;;;;;;1.08;0.80;;;;;;;20.12;100.00;96189.06;4966600;28;20113;-48
2022/10/22 04:59:44;;;;;;;1.98;0.80;;;;;;;20.40;100.00;96199.47;4964719;28;20086;-48
2022/10/22 05:02:13;;;;;;;1.77;0.77;;;;;;;20.81;100.00;96201.75;4965398;28;20070;-48
2022/10/22 05:04:43;;;;;;;1.88;0.68;;;;;;;21.01;100.00;96200.81;4963936;28;20091;-46
2022/10/22 05:07:12;;;;;;;1.63;0.77;;;;;;;20.74;100.00;96208.19;4968702;28;20144;-47
2022/10/22 05:09:40;;;;;;;1.85;0.77;;;;;;;20.34;100.00;96209.19;4965495;28;20094;-41
2022/10/22 05:12:08;;;;;;;2.78;0.65;;;;;;;20.68;100.00;96211.72;4966255;28;20086;-48
2022/10/22 05:14:36;;;;;;;1.92;0.70;;;;;;;20.76;100.00;96206.13;4967892;28;20086;-45
2022/10/22 05:17:09;;;;;;;1.63;0.70;;;;;;;20.17;100.00;96215.22;4964260;28;20149;-43
2022/10/22 05:19:38;;;;;;;0.47;0.47;;;;;;;19.71;100.00;96216.13;4966571;28;20086;-50
2022/10/22 05:22:07;;;;;;;2.33;0.70;;;;;;;20.32;100.00;96213.91;4966521;28;20493;-47
2022/10/22 05:24:36;;;;;;;0.80;0.60;;;;;;;20.18;100.00;96222.22;4964477;28;20082;-43
2022/10/22 05:27:05;;;;;;;4.40;0.70;;;;;;;20.32;100.00;96221.13;4967985;28;20083;-45
2022/10/22 05:29:33;;;;;;;1.58;0.75;;;;;;;20.17;100.00;96212.56;4966873;28;20113;-46
2022/10/22 05:32:01;;;;;;;6.82;0.60;;;;;;;20.34;100.00;96209.19;4964659;28;20085;-43
2022/10/22 05:34:30;;;;;;;0.77;0.57;;;;;;;20.66;100.00;96211.13;4962790;28;20086;-41
2022/10/22 05:36:58;;;;;;;0.70;0.45;;;;;;;20.68;100.00;96215.25;4960810;28;20079;-47
2022/10/22 05:39:28;;;;;;;2.75;0.80;;;;;;;20.95;100.00;96210.53;4964767;28;20090;-42
2022/10/22 05:41:57;;;;;;;1.27;0.60;;;;;;;20.79;100.00;96219.09;4965274;28;20470;-46
2022/10/22 05:44:25;;;;;;;7.18;1.05;;;;;;;20.78;100.00;96233.53;4966195;28;20512;-47
2022/10/22 05:46:53;;;;;;;1.13;0.80;;;;;;;21.08;100.00;96239.13;4968565;28;20094;-49
2022/10/22 05:49:22;;;;;;;2.85;0.60;;;;;;;21.14;100.00;96240.94;4970225;28;20093;-48
2022/10/22 05:51:50;;;;;;;3.92;0.73;;;;;;;20.41;100.00;96246.66;4970898;28;20131;-46
2022/10/22 05:54:20;;;;;;;1.58;0.70;;;;;;;21.18;100.00;96238.66;4966032;28;20082;-45
2022/10/22 05:56:50;;;;;;;2.45;0.70;;;;;;;20.92;100.00;96240.47;4967242;28;20085;-46
2022/10/22 05:59:18;;;;;;;2.53;0.60;;;;;;;21.61;100.00;96237.94;4967504;28;20525;-44
2022/10/22 06:01:47;;;;;;;1.25;0.60;;;;;;;21.69;100.00;96237.69;4965477;28;20548;-45
2022/10/22 06:04:16;;;;;;;1.15;0.60;;;;;;;21.86;100.00;96240.63;4966013;28;20093;-42
2022/10/22 06:06:46;;;;;;;1.67;0.77;;;;;;;21.70;100.00;96236.63;4967582;28;20105;-47
2022/10/22 06:09:17;;;;;;;0.77;0.60;;;;;;;21.56;100.00;96236.75;4967164;28;20082;-49
2022/10/22 06:11:46;;;;;;;1.77;0.60;;;;;;;21.83;100.00;96235.69;4966976;28;20484;-45
2022/10/22 06:14:16;;;;;;;0.73;0.50;;;;;;;;;;4966002;28;20055;-45
2022/10/22 06:16:44;;;;;;;0.93;0.60;;;;;;;21.54;100.00;96246.88;4968386;28;20074;-43
2022/10/22 06:19:14;;;;;;;115.20;92.05;;;;;;;21.31;100.00;96250.13;4967478;28;20110;-44
2022/10/22 06:21:42;;;;;;;7.05;5.95;;;;;;;21.78;100.00;96252.44;4970394;28;20086;-44
2022/10/22 06:24:11;;;;;;;6.13;2.70;;;;;;;22.04;100.00;96251.38;4972899;28;20090;-43
2022/10/22 06:26:39;;;;;;;3.30;0.70;;;;;;;21.92;100.00;96245.94;4966912;28;20082;-48
2022/10/22 06:29:08;;;;;;;1.85;0.63;;;;;;;22.23;100.00;96239.66;4968044;28;20082;-47
2022/10/22 06:31:38;;;;;;;1.85;0.57;;;;;;;20.56;100.00;96263.31;4961988;28;20066;-47
2022/10/22 06:34:08;;;;;;;2.30;0.80;;;;;;;21.74;100.00;96275.41;4972748;28;20093;-44
2022/10/22 06:36:36;;;;;;;0.80;0.60;;;;;;;21.91;100.00;96259.56;4971817;28;20094;-48
2022/10/22 06:39:05;;;;;;;1.00;0.60;;;;;;;22.05;100.00;96259.22;4965055;28;20109;-51
2022/10/22 06:41:33;;;;;;;5.30;0.60;;;;;;;22.51;100.00;96260.63;4971476;28;20082;-46
2022/10/22 06:44:01;;;;;;;1.98;0.70;;;;;;;22.26;100.00;96258.03;4972357;28;20124;-43
2022/10/22 06:46:30;;;;;;;2.00;0.73;;;;;;;22.38;100.00;96268.03;4972020;28;20090;-46
2022/10/22 06:49:01;;;;;;;1.30;0.77;;;;;;;22.71;100.00;96275.69;4972443;28;20086;-43
2022/10/22 06:51:30;;;;;;;0.98;0.85;;;;;;;22.78;100.00;96276.44;4971759;28;20584;-44
2022/10/22 06:53:58;;;;;;;1.55;0.63;;;;;;;22.90;100.00;96277.31;4969564;28;20070;-45
2022/10/22 06:56:28;;;;;;;1.00;0.47;;;;;;;22.26;100.00;96284.03;4970847;28;20083;-45
2022/10/22 06:58:58;;;;;;;0.63;0.50;;;;;;;22.56;100.00;96288.69;4971199;28;20082;-47
2022/10/22 07:01:28;;;;;;;0.90;0.50;;;;;;;22.89;100.00;96299.06;4971261;28;20533;-46
2022/10/22 07:03:57;;;;;;;0.45;0.40;;;;;;;22.98;100.00;96303.91;4971815;28;20603;-42
2022/10/22 07:06:28;;;;;;;1.10;0.52;;;;;;;22.54;100.00;96301.50;4971913;28;20086;-44
2022/10/22 07:08:58;;;;;;;1.80;0.60;;;;;;;22.18;100.00;96313.88;4971742;28;20074;-44
2022/10/22 07:11:28;;;;;;;1.50;0.60;;;;;;;22.86;100.00;96323.72;4968879;28;20525;-43
2022/10/22 07:13:57;;;;;;;1.80;0.50;;;;;;;22.87;100.00;96341.47;4971716;28;20090;-43
2022/10/22 07:16:26;;;;;;;1.10;0.53;;;;;;;22.80;100.00;96356.88;4971642;28;20090;-42
2022/10/22 07:18:59;;;;;;;2.45;0.70;;;;;;;22.94;100.00;96358.38;4971629;28;20093;-47
2022/10/22 07:21:29;;;;;;;1.63;0.60;;;;;;;23.11;100.00;96363.97;4971578;28;20477;-47
2022/10/22 07:23:58;;;;;;;1.20;1.00;;;;;;;22.91;100.00;96369.56;4970222;28;20086;-48
2022/10/22 07:26:29;;;;;;;1.67;0.68;;;;;;;23.00;100.00;96376.31;4971364;28;20071;-47
2022/10/22 07:28:58;;;;;;;1.98;0.60;;;;;;;22.91;100.00;96374.94;4971444;28;20082;-43
2022/10/22 07:31:26;;;;;;;1.63;0.60;;;;;;;23.12;100.00;96379.88;4971235;28;20509;-42
2022/10/22 07:33:55;;;;;;;2.38;0.50;;;;;;;23.00;100.00;96387.06;4965416;28;20087;-46
2022/10/22 07:36:23;;;;;;;2.00;0.68;;;;;;;22.77;100.00;96387.69;4962472;28;20082;-51
2022/10/22 07:38:56;;;;;;;1.15;0.50;;;;;;;22.93;100.00;96389.03;4965380;28;20090;-44
2022/10/22 07:41:24;;;;;;;2.63;0.60;;;;;;;23.03;100.00;96392.00;4969418;28;20094;-45
2022/10/22 07:43:52;;;;;;;1.23;0.50;;;;;;;22.81;100.00;96394.25;4971595;28;20097;-48
2022/10/22 07:46:21;;;;;;;2.53;0.50;;;;;;;22.80;100.00;96391.81;4970914;28;20486;-46
2022/10/22 07:48:49;;;;;;;2.10;0.70;;;;;;;23.08;100.00;96396.69;4971300;28;20097;-51
2022/10/22 07:51:18;;;;;;;2.58;0.63;;;;;;;23.45;100.00;96402.88;4969069;28;20075;-43
2022/10/22 07:53:46;;;;;;;0.95;0.50;;;;;;;23.22;100.00;96398.19;4962130;28;20086;-44
2022/10/22 07:56:16;;;;;;;3.00;0.88;;;;;;;23.78;100.00;96402.44;4970799;28;20093;-45
2022/10/22 07:58:45;;;;;;;1.80;0.70;;;;;;;23.05;100.00;96413.28;4971471;28;20548;-46
2022/10/22 08:01:13;;;;;;;0.90;0.60;;;;;;;23.55;100.00;96407.72;4970433;28;20078;-44
2022/10/22 08:03:41;;;;;;;1.50;0.52;;;;;;;23.64;100.00;96398.25;4970990;28;20094;-46
2022/10/22 08:06:10;;;;;;;1.00;0.65;;;;;;;23.58;100.00;96404.56;4967882;28;20082;-45
2022/10/22 08:08:38;;;;;;;1.10;0.60;;;;;;;22.73;100.00;96414.22;4970142;28;20121;-47
2022/10/22 08:11:06;;;;;;;1.88;1.00;;;;;;;23.11;100.00;96417.78;4970477;28;20082;-47
2022/10/22 08:13:36;;;;;;;1.80;0.80;;;;;;;23.15;100.00;96418.97;4970759;28;20093;-45
2022/10/22 08:16:08;;;;;;;2.75;1.00;;;;;;;23.28;100.00;96421.50;4970681;28;20082;-48
2022/10/22 08:18:37;;;;;;;3.17;1.00;;;;;;;22.88;100.00;96427.31;4970623;28;20086;-49
2022/10/22 08:21:05;;;;;;;3.15;0.82;;;;;;;23.25;100.00;96426.50;4969906;28;20564;-49
2022/10/22 08:23:34;;;;;;;2.05;0.80;;;;;;;23.01;100.00;96420.16;4970432;28;20079;-45
2022/10/22 08:26:02;;;;;;;2.72;1.02;;;;;;;23.30;100.00;96419.41;4970615;28;20549;-46
2022/10/22 08:28:34;;;;;;;2.40;0.82;;;;;;;23.71;100.00;96420.56;4969880;28;20082;-44
2022/10/22 08:31:04;;;;;;;2.60;1.02;;;;;;;23.94;100.00;96430.59;4960080;28;20086;-46
2022/10/22 08:33:32;;;;;;;2.58;1.83;;;;;;;23.79;100.00;96438.28;4967077;28;20649;-49
2022/10/22 08:36:01;;;;;;;3.53;1.70;;;;;;;23.79;100.00;96444.47;4968037;28;20522;-47
2022/10/22 08:38:30;;;;;;;2.55;0.70;;;;;;;23.30;100.00;96451.72;4970718;28;20466;-44
2022/10/22 08:41:06;;;;;;;1.80;0.70;;;;;;;23.24;100.00;96441.03;4970169;28;20090;-44
2022/10/22 08:43:55;;;;;;;1.77;0.80;;;;;;;23.78;100.00;96442.84;4970221;28;20529;-49
2022/10/22 08:46:34;;;;;;;2.60;0.80;;;;;;;24.10;100.00;96447.97;4965964;28;20085;-46
2022/10/22 08:49:05;;;;;;;1.98;0.60;;;;;;;23.49;100.00;96452.50;4980239;28;20074;-46
2022/10/22 08:51:39;;;;;;;1.38;0.90;;;;;;;24.27;100.00;96453.53;4966395;28;20395;-45
2022/10/22 08:54:17;;;;;;;1.33;0.65;;;;;;;23.75;100.00;96448.69;4968564;28;20082;-45
2022/10/22 08:56:52;;;;;;;3.25;0.80;;;;;;;23.57;100.00;96449.50;4969938;28;20070;-43
2022/10/22 08:59:24;;;;;;;2.13;0.80;;;;;;;23.70;100.00;96462.00;4964343;28;20085;-43
2022/10/22 09:01:54;;;;;;;0.98;0.80;;;;;;;23.78;100.00;96466.22;4967936;28;20074;-44
2022/10/22 09:04:26;;;;;;;1.75;0.60;;;;;;;22.72;100.00;96473.59;4970258;28;20083;-43
2022/10/22 09:06:56;;;;;;;2.13;0.70;;;;;;;23.54;100.00;96466.13;4969872;28;20090;-43
2022/10/22 09:09:26;;;;;;;3.13;0.68;;;;;;;23.86;100.00;96458.66;4970270;28;20074;-42
2022/10/22 09:11:54;;;;;;;;;;;;;;;23.45;100.00;96475.53;4970469;28;20081;-43
2022/10/22 09:14:24;;;;;;;2.17;0.60;;;;;;;23.58;100.00;96475.38;4970025;28;19961;-44
2022/10/22 09:17:16;;;;;;;0.93;0.60;;;;;;;23.40;100.00;96478.06;4968942;28;20062;-46
2022/10/22 09:19:53;;;;;;;1.38;0.50;;;;;;;23.64;100.00;96485.25;4967834;28;20082;-47
2022/10/22 09:22:31;;;;;;;1.27;0.50;;;;;;;22.95;100.00;96506.09;4973103;28;20078;-47
2022/10/22 09:25:02;;;;;;;1.05;0.50;;;;;;;23.90;100.00;96492.16;4975039;28;20073;-46
2022/10/22 09:27:31;;;;;;;2.05;0.45;;;;;;;23.42;100.00;96490.25;4968341;28;20081;-40
2022/10/22 09:30:00;;;;;;;3.00;0.52;;;;;;;22.94;100.00;96499.03;4969255;28;20194;-45
2022/10/22 09:32:32;;;;;;;2.10;0.65;;;;;;;23.20;100.00;96497.16;4973298;28;20090;-42
2022/10/22 09:35:00;;;;;;;1.13;0.50;;;;;;;22.48;100.00;96504.81;4974032;28;20105;-43
2022/10/22 09:37:29;;;;;;;1.45;0.70;;;;;;;23.63;100.00;96488.97;4973645;28;20078;-43
2022/10/22 09:40:04;;;;;;;0.70;0.43;;;;;;;23.36;100.00;96483.06;4973347;28;20124;-50
2022/10/22 09:42:33;;;;;;;1.55;0.60;;;;;;;23.05;100.00;96494.81;4973685;28;20070;-44
2022/10/22 09:45:02;;;;;;;0.75;0.50;;;;;;;23.04;100.00;96506.63;4970804;28;20085;-44
2022/10/22 09:47:34;;;;;;;1.80;0.50;;;;;;;24.35;100.00;96499.00;4972402;28;20082;-44
2022/10/22 09:50:13;;;;;;;;;;;;;;;23.54;100.00;96501.13;4974281;28;20077;-45
2022/10/22 09:52:41;;;;;;;0.75;0.55;;;;;;;24.60;100.00;96509.63;4973210;28;19949;-45
2022/10/22 09:55:14;;;;;;;1.98;0.77;;;;;;;24.83;100.00;96506.13;4973322;28;20183;-44
2022/10/22 09:57:42;;;;;;;0.70;0.50;;;;;;;23.93;100.00;96517.84;4973492;28;20081;-44
2022/10/22 10:00:18;;;;;;;3.88;0.57;;;;;;;24.81;100.00;96514.47;4969160;28;20074;-42
2022/10/22 10:02:48;;;;;;;1.60;0.40;;;;;;;24.82;100.00;96510.72;4969022;28;20549;-44
2022/10/22 10:05:20;;;;;;;0.73;0.50;;;;;;;24.92;100.00;96507.44;4973222;28;20079;-47
2022/10/22 10:07:48;;;;;;;1.02;0.55;;;;;;;24.49;100.00;96510.44;4973063;28;20073;-47
2022/10/22 10:10:19;;;;;;;1.35;0.50;;;;;;;24.72;100.00;96505.06;4973015;28;20093;-45
2022/10/22 10:12:55;;;;;;;1.40;0.50;;;;;;;24.07;100.00;96507.69;4968360;28;20529;-43
2022/10/22 10:15:28;;;;;;;1.67;0.60;;;;;;;25.55;100.00;96495.06;4972646;28;20086;-43
2022/10/22 10:18:05;;;;;;;1.02;0.60;;;;;;;25.92;100.00;96492.06;4972630;28;20541;-48
2022/10/22 10:20:40;;;;;;;0.50;0.43;;;;;;;25.04;100.00;96502.03;4966465;28;20082;-49
2022/10/22 10:23:15;;;;;;;1.17;0.63;;;;;;;24.79;100.00;96500.38;4971099;28;20070;-44
2022/10/22 10:25:49;;;;;;;1.95;0.40;;;;;;;25.66;100.00;96499.63;4965935;28;20074;-46
2022/10/22 10:28:39;;;;;;;3.67;0.73;;;;;;;25.78;100.00;96494.19;4969772;28;20090;-48
2022/10/22 10:31:19;;;;;;;0.73;0.35;;;;;;;25.80;100.00;96483.97;4972143;28;20552;-44
2022/10/22 10:33:54;;;;;;;1.92;0.50;;;;;;;25.71;95.50;96488.13;4972682;28;20115;-44
2022/10/22 10:36:28;;;;;;;1.88;0.45;;;;;;;25.17;100.00;96501.81;4972311;28;20086;-47
2022/10/22 10:39:00;;;;;;;2.00;0.50;;;;;;;26.07;94.26;96492.34;4972183;28;20086;-50
2022/10/22 10:41:37;;;;;;;3.85;0.60;;;;;;;25.65;89.61;96489.88;4969195;28;20082;-43
2022/10/22 10:44:19;;;;;;;0.77;0.50;;;;;;;26.67;98.97;96486.41;4971842;28;20513;-44
2022/10/22 10:46:52;;;;;;;0.93;0.50;;;;;;;25.86;100.00;96485.72;4972175;28;20090;-46
2022/10/22 10:49:24;;;;;;;1.75;0.60;;;;;;;26.19;100.00;96485.00;4966631;28;20529;-51
2022/10/22 10:51:58;;;;;;;0.88;0.50;;;;;;;25.84;100.00;96487.03;4970510;28;20455;-43
2022/10/22 10:54:34;;;;;;;2.55;0.82;;;;;;;25.37;100.00;96495.25;4970638;28;20082;-43
2022/10/22 10:57:06;;;;;;;1.70;0.50;;;;;;;26.34;100.00;96483.63;4972204;28;20471;-47
2022/10/22 10:59:45;;;;;;;0.75;0.52;;;;;;;24.44;100.00;96496.84;4971932;28;20089;-46
2022/10/22 11:02:37;;;;;;;1.23;0.63;;;;;;;25.96;100.00;96490.50;4971975;28;20107;-44
2022/10/22 11:05:38;;;;;;;1.40;0.60;;;;;;;25.52;100.00;96501.75;4971961;28;20081;-48
2022/10/22 11:08:13;;;;;;;1.33;0.63;;;;;;;25.97;100.00;96486.75;4949599;28;20058;-50
2022/10/22 11:10:45;;;;;;;1.40;0.60;;;;;;;26.02;100.00;96490.38;4966406;28;20086;-46
2022/10/22 11:13:21;;;;;;;1.70;0.65;;;;;;;27.35;84.44;96483.59;4971882;28;20125;-47
2022/10/22 11:15:54;;;;;;;0.60;0.60;;;;;;;26.60;89.70;96477.63;4971904;28;20099;-49
2022/10/22 11:18:27;;;;;;;3.25;0.70;;;;;;;26.84;82.97;96480.13;4969537;28;20094;-44
2022/10/22 11:21:09;;;;;;;1.52;0.60;;;;;;;27.71;75.14;96475.94;4965227;28;20143;-45
2022/10/22 11:23:41;;;;;;;3.75;1.80;;;;;;;27.89;71.77;96476.44;4966659;28;20097;-43
2022/10/22 11:26:14;;;;;;;1.58;0.65;;;;;;;27.42;78.18;96473.41;4971383;28;20082;-44
2022/10/22 11:28:45;;;;;;;1.83;0.68;;;;;;;26.89;88.49;96475.63;4965885;28;20089;-48
2022/10/22 11:31:16;;;;;;;1.67;0.60;;;;;;;26.27;100.00;96471.09;4968533;28;20078;-51
2022/10/22 11:33:51;;;;;;;1.27;0.60;;;;;;;26.23;100.00;96478.03;4971188;28;20178;-47
2022/10/22 11:36:34;;;;;;;0.93;0.60;;;;;;;26.01;100.00;96479.78;4968780;28;20097;-43
2022/10/22 11:39:03;;;;;;;1.65;0.52;;;;;;;26.19;100.00;96481.50;4964883;28;20087;-49
2022/10/22 11:41:33;;;;;;;0.93;0.60;;;;;;;26.83;86.99;96471.19;4970975;28;20094;-44
2022/10/22 11:44:13;;;;;;;0.90;0.60;;;;;;;26.11;100.00;96471.88;4970641;28;20494;-48